createdAt,value
2018-05-15T00:02:01.833Z,8.27
2018-05-15T00:05:07.784Z,9.43
2018-05-15T00:08:13.885Z,7.30
2018-05-15T00:11:19.788Z,5.97
2018-05-15T00:14:26.261Z,7.97
2018-05-15T00:17:32.459Z,6.83
2018-05-15T00:20:38.502Z,7.20
2018-05-15T00:23:44.647Z,7.20
2018-05-15T00:26:50.636Z,7.87
2018-05-15T00:29:56.656Z,6.77
2018-05-15T00:33:02.690Z,6.57
2018-05-15T00:36:08.964Z,6.13
2018-05-15T00:39:14.926Z,6.10
2018-05-15T00:42:20.893Z,6.30
2018-05-15T00:45:26.976Z,6.20
2018-05-15T00:48:32.993Z,6.20
2018-05-15T00:51:39.144Z,5.23
2018-05-15T00:54:46.084Z,4.60
2018-05-15T00:57:51.445Z,5.30
2018-05-15T01:00:57.703Z,4.87
2018-05-15T01:04:03.764Z,4.87
2018-05-15T01:07:09.837Z,4.70
2018-05-15T01:10:16.009Z,3.90
2018-05-15T01:13:22.140Z,4.13
2018-05-15T01:16:28.460Z,3.93
2018-05-15T01:19:34.592Z,4.00
2018-05-15T01:22:40.975Z,4.10
2018-05-15T01:25:47.136Z,3.33
2018-05-15T01:28:53.222Z,3.57
2018-05-15T01:31:59.417Z,3.20
2018-05-15T01:35:04.764Z,2.97
2018-05-15T01:38:10.897Z,2.57
2018-05-15T01:41:17.140Z,2.90
2018-05-15T01:44:28.057Z,3.07
2018-05-15T01:47:35.120Z,3.30
2018-05-15T01:50:41.182Z,3.03
2018-05-15T01:53:48.286Z,4.70
2018-05-15T01:56:54.415Z,3.10
2018-05-15T02:00:00.721Z,2.70
2018-05-15T02:03:07.942Z,3.13
2018-05-15T02:06:14.141Z,2.73
2018-05-15T02:09:21.204Z,3.00
2018-05-15T02:12:27.554Z,5.10
2018-05-15T02:15:33.560Z,3.93
2018-05-15T02:18:39.769Z,4.10
2018-05-15T02:21:53.568Z,2.93
2018-05-15T02:25:00.764Z,2.50
2018-05-15T02:28:07.738Z,2.50
2018-05-15T02:31:13.877Z,1.80
2018-05-15T02:34:19.978Z,1.97
2018-05-15T02:37:25.881Z,2.03
2018-05-15T02:40:31.898Z,2.60
2018-05-15T02:43:38.851Z,2.93
2018-05-15T02:46:45.246Z,2.90
2018-05-15T02:49:51.177Z,3.17
2018-05-15T02:52:57.334Z,2.30
2018-05-15T02:56:03.140Z,2.23
2018-05-15T02:59:09.353Z,3.23
2018-05-15T03:02:15.444Z,2.30
2018-05-15T03:05:21.433Z,2.70
2018-05-15T03:08:27.437Z,3.13
2018-05-15T03:11:33.664Z,2.73
2018-05-15T03:14:39.573Z,2.90
2018-05-15T03:17:45.505Z,4.03
2018-05-15T03:20:51.578Z,3.40
2018-05-15T03:23:57.892Z,4.10
2018-05-15T03:27:03.957Z,3.60
2018-05-15T03:30:10.114Z,3.70
2018-05-15T03:33:17.207Z,3.77
2018-05-15T03:36:23.226Z,3.60
2018-05-15T03:39:32.451Z,3.93
2018-05-15T03:42:38.657Z,4.20
2018-05-15T03:45:44.848Z,3.90
2018-05-15T03:48:50.918Z,4.90
2018-05-15T03:51:56.988Z,4.70
2018-05-15T03:55:03.014Z,4.50
2018-05-15T03:58:09.096Z,4.73
2018-05-15T04:01:27.304Z,4.40
2018-05-15T04:04:45.587Z,4.03
2018-05-15T04:08:03.636Z,4.20
2018-05-15T04:11:09.789Z,5.50
2018-05-15T04:14:16.029Z,5.47
2018-05-15T04:17:22.818Z,5.13
2018-05-15T04:20:27.964Z,4.60
2018-05-15T04:23:34.085Z,4.70
2018-05-15T04:26:40.834Z,4.90
2018-05-15T04:29:47.229Z,4.90
2018-05-15T04:32:53.592Z,5.70
2018-05-15T04:36:00.273Z,5.73
2018-05-15T04:39:06.596Z,5.80
2018-05-15T04:42:12.882Z,6.77
2018-05-15T04:45:18.822Z,6.40
2018-05-15T04:48:24.642Z,6.33
2018-05-15T04:51:30.918Z,6.53
2018-05-15T04:54:36.738Z,7.47
2018-05-15T04:57:42.858Z,6.97
2018-05-15T05:00:49.747Z,7.03
2018-05-15T05:03:55.683Z,7.10
2018-05-15T05:07:01.875Z,7.00
2018-05-15T05:10:08.007Z,8.70
2018-05-15T05:13:14.273Z,8.33
2018-05-15T05:16:20.565Z,7.40
2018-05-15T05:19:26.655Z,7.33
2018-05-15T05:22:33.070Z,7.17
2018-05-15T05:25:39.081Z,7.23
2018-05-15T05:28:46.147Z,8.10
2018-05-15T05:31:52.099Z,6.90
2018-05-15T05:34:58.226Z,7.93
2018-05-15T05:38:04.189Z,7.03
2018-05-15T05:41:10.233Z,8.00
2018-05-15T05:44:16.382Z,7.73
2018-05-15T05:47:22.793Z,7.30
2018-05-15T05:50:28.840Z,8.87
2018-05-15T05:53:35.128Z,9.40
2018-05-15T05:56:40.798Z,7.00
2018-05-15T05:59:47.825Z,7.40
2018-05-15T06:02:53.930Z,8.57
2018-05-15T06:06:00.209Z,7.83
2018-05-15T06:09:06.540Z,8.47
2018-05-15T06:12:12.846Z,10.47
2018-05-15T06:15:18.941Z,17.70
2018-05-15T06:18:24.750Z,8.60
2018-05-15T06:21:30.970Z,9.80
2018-05-15T06:24:37.075Z,9.70
2018-05-15T06:27:42.897Z,9.37
2018-05-15T06:30:48.914Z,11.63
2018-05-15T06:33:54.856Z,9.10
2018-05-15T06:37:00.817Z,9.47
2018-05-15T06:40:07.116Z,9.33
2018-05-15T06:43:13.080Z,8.70
2018-05-15T06:46:20.025Z,9.80
2018-05-15T06:49:26.545Z,10.50
2018-05-15T06:52:32.615Z,15.10
2018-05-15T06:55:38.793Z,12.13
2018-05-15T06:58:45.022Z,13.70
2018-05-15T07:01:51.143Z,13.87
2018-05-15T07:04:57.328Z,12.90
2018-05-15T07:08:03.362Z,13.40
2018-05-15T07:11:10.548Z,13.53
2018-05-15T07:14:16.706Z,14.57
2018-05-15T07:17:22.922Z,13.43
2018-05-15T07:20:29.880Z,13.03
2018-05-15T07:23:35.965Z,14.93
2018-05-15T07:26:42.224Z,15.53
2018-05-15T07:29:48.279Z,17.97
2018-05-15T07:32:54.344Z,15.73
2018-05-15T07:36:00.487Z,16.30
2018-05-15T07:39:07.708Z,17.20
2018-05-15T07:42:14.463Z,15.00
2018-05-15T07:45:20.370Z,13.87
2018-05-15T07:48:27.457Z,15.53
2018-05-15T07:51:33.585Z,16.40
2018-05-15T07:54:39.785Z,16.67
2018-05-15T07:57:45.767Z,14.13
2018-05-15T08:00:51.783Z,18.63
2018-05-15T08:03:57.755Z,15.27
2018-05-15T08:07:03.806Z,14.53
2018-05-15T08:10:09.845Z,15.07
2018-05-15T08:13:16.104Z,15.03
2018-05-15T08:16:22.171Z,17.53
2018-05-15T08:19:28.374Z,15.97
2018-05-15T08:22:34.707Z,15.00
2018-05-15T08:25:40.906Z,16.53
2018-05-15T08:28:47.104Z,14.60
2018-05-15T08:31:53.420Z,16.13
2018-05-15T08:35:00.623Z,17.70
2018-05-15T08:38:06.555Z,18.23
2018-05-15T08:41:12.496Z,17.10
2018-05-15T08:44:18.595Z,20.80
2018-05-15T08:47:25.639Z,18.47
2018-05-15T08:50:31.816Z,18.27
2018-05-15T08:53:37.902Z,21.53
2018-05-15T08:56:44.374Z,17.10
2018-05-15T08:59:50.524Z,17.70
2018-05-15T09:02:56.551Z,16.23
2018-05-15T09:06:02.625Z,16.67
2018-05-15T09:09:10.712Z,15.07
2018-05-15T09:12:16.808Z,15.50
2018-05-15T09:15:23.085Z,15.60
2018-05-15T09:18:29.389Z,16.70
2018-05-15T09:21:35.588Z,17.40
2018-05-15T09:24:41.693Z,14.97
2018-05-15T09:27:47.863Z,18.17
2018-05-15T09:30:54.082Z,15.67
2018-05-15T09:34:00.351Z,16.43
2018-05-15T09:37:06.316Z,15.20
2018-05-15T09:40:12.289Z,15.30
2018-05-15T09:43:18.540Z,15.30
2018-05-15T09:46:24.317Z,14.30
2018-05-15T09:49:30.401Z,13.97
2018-05-15T09:52:37.406Z,13.77
2018-05-15T09:55:43.651Z,15.37
2018-05-15T09:58:49.742Z,13.27
2018-05-15T10:01:55.728Z,12.97
2018-05-15T10:05:02.131Z,11.57
2018-05-15T10:08:08.195Z,13.70
2018-05-15T10:11:14.178Z,12.53
2018-05-15T10:14:19.508Z,10.07
2018-05-15T10:17:25.634Z,10.77
2018-05-15T10:20:31.917Z,16.30
2018-05-15T10:23:37.845Z,11.07
2018-05-15T10:26:44.792Z,11.50
2018-05-15T10:29:50.854Z,12.50
2018-05-15T10:32:56.911Z,12.53
2018-05-15T10:36:02.794Z,13.07
2018-05-15T10:39:08.801Z,12.80
2018-05-15T10:42:15.757Z,11.73
2018-05-15T10:45:21.867Z,10.73
2018-05-15T10:48:27.802Z,10.97
2018-05-15T10:51:33.867Z,9.53
2018-05-15T10:54:39.869Z,10.40
2018-05-15T10:57:45.806Z,13.73
2018-05-15T11:00:51.971Z,9.83
2018-05-15T11:03:57.981Z,10.50
2018-05-15T11:07:04.127Z,10.30
2018-05-15T11:10:10.172Z,11.57
2018-05-15T11:13:16.341Z,11.13
2018-05-15T11:16:22.512Z,10.73
2018-05-15T11:19:40.693Z,10.53
2018-05-15T11:22:58.775Z,11.13
2018-05-15T11:26:05.141Z,11.37
2018-05-15T11:29:11.143Z,9.83
2018-05-15T11:32:17.134Z,9.40
2018-05-15T11:35:23.177Z,9.90
2018-05-15T11:38:29.356Z,13.60
2018-05-15T11:41:35.565Z,14.73
2018-05-15T11:44:42.608Z,9.47
2018-05-15T11:47:49.286Z,9.53
2018-05-15T11:50:55.520Z,8.57
2018-05-15T11:54:00.975Z,9.40
2018-05-15T11:57:06.817Z,10.70
2018-05-15T12:00:12.887Z,9.87
2018-05-15T12:03:19.166Z,10.83
2018-05-15T12:06:29.387Z,9.80
2018-05-15T12:09:36.383Z,9.80
2018-05-15T12:12:45.440Z,10.97
2018-05-15T12:15:51.705Z,10.47
2018-05-15T12:18:57.722Z,9.50
2018-05-15T12:22:03.989Z,10.00
2018-05-15T12:25:10.070Z,11.20
2018-05-15T12:28:16.233Z,12.10
2018-05-15T12:31:22.363Z,12.67
2018-05-15T12:34:36.504Z,13.10
2018-05-15T12:37:42.500Z,12.37
2018-05-15T12:40:48.467Z,8.20
2018-05-15T12:43:55.493Z,8.93
2018-05-15T12:47:01.603Z,8.20
2018-05-15T12:50:07.887Z,7.80
2018-05-15T12:53:13.799Z,8.60
2018-05-15T12:56:20.068Z,23.60
2018-05-15T12:59:26.033Z,14.20
2018-05-15T13:02:32.278Z,11.20
2018-05-15T13:05:38.382Z,12.80
2018-05-15T13:08:44.497Z,14.07
2018-05-15T13:11:50.414Z,12.00
2018-05-15T13:14:56.556Z,13.03
2018-05-15T13:18:02.633Z,12.80
2018-05-15T13:21:09.729Z,27.93
2018-05-15T13:24:16.163Z,10.80
2018-05-15T13:27:22.475Z,21.90
2018-05-15T13:30:28.578Z,13.40
2018-05-15T13:33:34.534Z,13.63
2018-05-15T13:36:40.752Z,10.87
2018-05-15T13:39:46.665Z,7.80
2018-05-15T13:42:52.694Z,9.37
2018-05-15T13:45:58.654Z,9.63
2018-05-15T13:49:05.692Z,9.23
2018-05-15T13:52:11.873Z,9.70
2018-05-15T13:55:17.910Z,8.87
2018-05-15T13:58:23.933Z,8.90
2018-05-15T14:01:29.882Z,9.27
2018-05-15T14:04:35.990Z,9.17
2018-05-15T14:07:42.145Z,7.97
2018-05-15T14:10:50.253Z,8.10
2018-05-15T14:13:56.649Z,9.10
2018-05-15T14:17:03.564Z,8.53
2018-05-15T14:20:09.504Z,9.17
2018-05-15T14:23:16.687Z,8.90
2018-05-15T14:26:22.752Z,8.10
2018-05-15T14:29:28.968Z,6.63
2018-05-15T14:32:35.021Z,7.30
2018-05-15T14:35:41.887Z,7.23
2018-05-15T14:38:48.023Z,7.10
2018-05-15T14:42:06.184Z,7.33
2018-05-15T14:45:12.655Z,7.30
2018-05-15T14:48:18.657Z,7.00
2018-05-15T14:51:45.981Z,7.20
2018-05-15T14:54:52.204Z,7.50
2018-05-15T14:57:58.342Z,6.70
2018-05-15T15:01:04.487Z,6.90
2018-05-15T15:04:11.437Z,7.53
2018-05-15T15:07:18.595Z,8.73
2018-05-15T15:10:25.564Z,8.30
2018-05-15T15:13:31.635Z,8.40
2018-05-15T15:16:37.720Z,7.60
2018-05-15T15:19:43.899Z,8.37
2018-05-15T15:22:50.186Z,8.13
2018-05-15T15:25:56.173Z,8.80
2018-05-15T15:29:02.602Z,9.17
2018-05-15T15:32:08.941Z,8.30
2018-05-15T15:35:15.850Z,8.87
2018-05-15T15:38:21.701Z,9.73
2018-05-15T15:41:28.756Z,10.30
2018-05-15T15:44:34.723Z,8.33
2018-05-15T15:47:40.832Z,8.10
2018-05-15T15:50:46.944Z,7.80
2018-05-15T15:53:53.026Z,8.43
2018-05-15T15:56:59.100Z,8.33
2018-05-15T16:00:05.060Z,9.03
2018-05-15T16:03:11.371Z,10.47
2018-05-15T16:06:17.323Z,8.90
2018-05-15T16:09:23.189Z,7.00
2018-05-15T16:12:29.240Z,8.30
2018-05-15T16:15:35.025Z,7.43
2018-05-15T16:18:41.117Z,7.50
2018-05-15T16:21:47.164Z,7.80
2018-05-15T16:24:53.205Z,9.27
2018-05-15T16:27:59.360Z,7.47
2018-05-15T16:31:05.607Z,7.80
2018-05-15T16:34:11.792Z,9.40
2018-05-15T16:37:17.941Z,8.80
2018-05-15T16:40:24.103Z,9.07
2018-05-15T16:43:30.360Z,8.53
2018-05-15T16:46:36.363Z,9.20
2018-05-15T16:49:42.641Z,8.00
2018-05-15T16:52:48.629Z,10.40
2018-05-15T16:55:54.602Z,9.73
2018-05-15T16:59:00.600Z,8.77
2018-05-15T17:02:06.712Z,10.30
2018-05-15T17:05:12.806Z,10.37
2018-05-15T17:08:19.844Z,12.77
2018-05-15T17:11:25.927Z,10.83
2018-05-15T17:14:32.004Z,10.00
2018-05-15T17:17:38.408Z,9.70
2018-05-15T17:20:44.617Z,12.37
2018-05-15T17:23:50.815Z,11.83
2018-05-15T17:26:57.147Z,10.83
2018-05-15T17:30:03.184Z,12.07
2018-05-15T17:33:09.382Z,13.43
2018-05-15T17:36:14.595Z,12.33
2018-05-15T17:39:20.841Z,11.77
2018-05-15T17:42:27.118Z,12.87
2018-05-15T17:45:33.236Z,11.73
2018-05-15T17:48:39.325Z,11.90
2018-05-15T17:51:45.618Z,13.17
2018-05-15T17:54:51.666Z,13.37
2018-05-15T17:57:57.752Z,16.87
2018-05-15T18:01:03.821Z,12.80
2018-05-15T18:04:10.060Z,11.10
2018-05-15T18:07:16.595Z,11.47
2018-05-15T18:10:22.903Z,11.80
2018-05-15T18:13:29.094Z,11.37
2018-05-15T18:16:36.031Z,11.63
2018-05-15T18:19:42.249Z,10.93
2018-05-15T18:22:48.242Z,11.77
2018-05-15T18:25:54.381Z,11.73
2018-05-15T18:29:00.183Z,13.67
2018-05-15T18:32:06.297Z,12.53
2018-05-15T18:35:13.189Z,12.43
2018-05-15T18:38:26.762Z,11.23
2018-05-15T18:41:33.020Z,11.87
2018-05-15T18:44:39.172Z,14.67
2018-05-15T18:47:45.414Z,12.40
2018-05-15T18:50:51.643Z,12.83
2018-05-15T18:53:58.673Z,11.70
2018-05-15T18:57:05.824Z,13.33
2018-05-15T19:00:11.565Z,12.23
2018-05-15T19:03:17.472Z,20.63
2018-05-15T19:06:23.642Z,12.60
2018-05-15T19:09:44.646Z,11.73
2018-05-15T19:12:50.790Z,12.33
2018-05-15T19:15:56.590Z,11.87
2018-05-15T19:19:02.669Z,12.20
2018-05-15T19:22:08.512Z,12.63
2018-05-15T19:25:14.535Z,12.43
2018-05-15T19:28:20.354Z,11.73
2018-05-15T19:31:26.504Z,12.80
2018-05-15T19:34:32.629Z,12.10
2018-05-15T19:37:38.677Z,11.30
2018-05-15T19:40:49.730Z,12.50
2018-05-15T19:43:56.466Z,10.97
2018-05-15T19:47:02.724Z,12.37
2018-05-15T19:50:08.580Z,11.67
2018-05-15T19:53:14.806Z,9.93
2018-05-15T19:56:22.245Z,9.57
2018-05-15T19:59:28.222Z,10.80
2018-05-15T20:02:34.101Z,9.43
2018-05-15T20:05:39.754Z,11.70
2018-05-15T20:08:45.944Z,10.30
2018-05-15T20:11:52.178Z,11.07
2018-05-15T20:14:58.286Z,13.53
2018-05-15T20:18:04.392Z,13.17
2018-05-15T20:21:10.431Z,14.30
2018-05-15T20:24:16.757Z,14.43
2018-05-15T20:27:22.913Z,17.33
2018-05-15T20:30:28.890Z,21.17
2018-05-15T20:33:34.906Z,22.13
2018-05-15T20:36:41.259Z,18.63
2018-05-15T20:39:47.489Z,15.03
2018-05-15T20:42:54.495Z,16.40
2018-05-15T20:46:00.463Z,17.03
2018-05-15T20:49:06.382Z,15.73
2018-05-15T20:52:12.722Z,15.83
2018-05-15T20:55:18.781Z,16.30
2018-05-15T20:58:24.849Z,16.97
2018-05-15T21:01:30.837Z,18.37
2018-05-15T21:04:36.910Z,19.40
2018-05-15T21:07:42.880Z,17.77
2018-05-15T21:10:48.830Z,19.57
2018-05-15T21:13:54.588Z,18.37
2018-05-15T21:17:00.787Z,20.03
2018-05-15T21:20:07.876Z,17.97
2018-05-15T21:23:14.026Z,19.63
2018-05-15T21:26:19.812Z,18.73
2018-05-15T21:29:25.847Z,18.50
2018-05-15T21:32:32.523Z,23.30
2018-05-15T21:35:38.518Z,23.60
2018-05-15T21:38:44.843Z,23.50
2018-05-15T21:41:50.500Z,21.60
2018-05-15T21:44:56.586Z,21.70
2018-05-15T21:48:03.559Z,21.20
2018-05-15T21:51:09.635Z,21.30
2018-05-15T21:54:16.445Z,21.97
2018-05-15T21:57:22.599Z,22.33
2018-05-15T22:00:27.951Z,26.30
2018-05-15T22:03:33.979Z,20.27
2018-05-15T22:06:44.230Z,24.33
2018-05-15T22:09:51.141Z,23.40
2018-05-15T22:13:10.430Z,24.27
2018-05-15T22:16:34.475Z,27.60
2018-05-15T22:19:58.406Z,27.30
2018-05-15T22:23:10.416Z,27.80
2018-05-15T22:26:15.517Z,26.83
2018-05-15T22:29:22.587Z,24.33
2018-05-15T22:32:29.769Z,24.90
2018-05-15T22:35:35.712Z,22.53
2018-05-15T22:38:41.433Z,25.63
2018-05-15T22:41:47.419Z,23.63
2018-05-15T22:44:53.252Z,24.50
2018-05-15T22:48:00.266Z,22.67
2018-05-15T22:51:06.528Z,25.77
2018-05-15T22:54:12.417Z,22.23
2018-05-15T22:57:18.705Z,21.90
2018-05-15T23:00:24.889Z,21.67
2018-05-15T23:03:30.963Z,25.43
2018-05-15T23:06:37.073Z,22.87
2018-05-15T23:09:43.401Z,23.77
2018-05-15T23:12:49.090Z,22.10
2018-05-15T23:15:54.263Z,21.97
2018-05-15T23:19:00.266Z,21.30
2018-05-15T23:22:06.346Z,21.47
2018-05-15T23:25:12.151Z,23.23
2018-05-15T23:28:18.186Z,26.33
2018-05-15T23:31:24.148Z,20.00
2018-05-15T23:34:30.224Z,25.30
2018-05-15T23:37:36.337Z,23.50
2018-05-15T23:40:42.301Z,25.63
2018-05-15T23:43:49.271Z,26.07
2018-05-15T23:46:55.433Z,22.07
2018-05-15T23:50:01.819Z,23.07
2018-05-15T23:53:07.776Z,20.60
2018-05-15T23:56:13.700Z,23.10
2018-05-15T23:59:19.747Z,25.87
